sensor_id;sensor_type;location;lat;lon;timestamp;temperature;humidity
364;DHT22;173;48.718;9.274;2022-08-03T00:01:41;21.90;87.90
364;DHT22;173;48.718;9.274;2022-08-03T00:05:46;21.80;88.20
364;DHT22;173;48.718;9.274;2022-08-03T00:08:18;21.70;88.20
364;DHT22;173;48.718;9.274;2022-08-03T00:10:50;21.70;88.30
364;DHT22;173;48.718;9.274;2022-08-03T00:13:23;21.80;88.20
364;DHT22;173;48.718;9.274;2022-08-03T00:15:55;21.80;88.10
364;DHT22;173;48.718;9.274;2022-08-03T00:18:27;21.70;88.40
364;DHT22;173;48.718;9.274;2022-08-03T00:20:59;21.80;88.20
364;DHT22;173;48.718;9.274;2022-08-03T00:23:32;21.90;87.80
364;DHT22;173;48.718;9.274;2022-08-03T00:26:04;22.00;87.10
364;DHT22;173;48.718;9.274;2022-08-03T00:28:36;21.90;87.10
364;DHT22;173;48.718;9.274;2022-08-03T00:43:56;21.40;89.70
364;DHT22;173;48.718;9.274;2022-08-03T00:46:28;21.40;89.70
364;DHT22;173;48.718;9.274;2022-08-03T00:49:00;21.50;89.10
364;DHT22;173;48.718;9.274;2022-08-03T00:51:34;21.50;89.10
364;DHT22;173;48.718;9.274;2022-08-03T00:54:06;21.40;89.20
364;DHT22;173;48.718;9.274;2022-08-03T00:56:39;21.40;89.20
364;DHT22;173;48.718;9.274;2022-08-03T00:59:12;21.40;88.80
364;DHT22;173;48.718;9.274;2022-08-03T01:06:54;21.40;88.10
364;DHT22;173;48.718;9.274;2022-08-03T01:15:09;21.40;88.60
364;DHT22;173;48.718;9.274;2022-08-03T01:20:47;21.30;88.90
364;DHT22;173;48.718;9.274;2022-08-03T01:26:47;21.10;89.30
364;DHT22;173;48.718;9.274;2022-08-03T01:32:19;20.80;90.40
364;DHT22;173;48.718;9.274;2022-08-03T01:34:59;20.70;90.80
364;DHT22;173;48.718;9.274;2022-08-03T01:37:38;20.80;90.30
364;DHT22;173;48.718;9.274;2022-08-03T01:40:16;20.90;90.20
364;DHT22;173;48.718;9.274;2022-08-03T01:44:30;20.90;90.20
364;DHT22;173;48.718;9.274;2022-08-03T01:47:03;20.70;90.70
364;DHT22;173;48.718;9.274;2022-08-03T01:49:42;20.60;91.20
364;DHT22;173;48.718;9.274;2022-08-03T01:52:16;20.60;91.30
364;DHT22;173;48.718;9.274;2022-08-03T01:54:50;20.70;90.90
364;DHT22;173;48.718;9.274;2022-08-03T01:57:23;20.70;90.90
364;DHT22;173;48.718;9.274;2022-08-03T01:59:58;20.50;91.60
364;DHT22;173;48.718;9.274;2022-08-03T02:02:32;20.60;91.70
364;DHT22;173;48.718;9.274;2022-08-03T02:05:07;20.60;91.50
364;DHT22;173;48.718;9.274;2022-08-03T02:07:41;20.60;91.40
364;DHT22;173;48.718;9.274;2022-08-03T02:10:15;20.60;91.40
364;DHT22;173;48.718;9.274;2022-08-03T02:12:49;20.60;91.30
364;DHT22;173;48.718;9.274;2022-08-03T02:15:24;20.50;91.40
364;DHT22;173;48.718;9.274;2022-08-03T02:19:38;20.40;92.30
364;DHT22;173;48.718;9.274;2022-08-03T02:22:14;20.40;92.30
364;DHT22;173;48.718;9.274;2022-08-03T02:24:46;20.30;92.30
364;DHT22;173;48.718;9.274;2022-08-03T02:27:26;20.20;92.50
364;DHT22;173;48.718;9.274;2022-08-03T02:30:07;20.20;92.70
364;DHT22;173;48.718;9.274;2022-08-03T02:32:43;20.10;92.80
364;DHT22;173;48.718;9.274;2022-08-03T02:35:19;19.90;93.40
364;DHT22;173;48.718;9.274;2022-08-03T02:37:58;19.90;93.70
364;DHT22;173;48.718;9.274;2022-08-03T02:40:31;19.90;93.60
364;DHT22;173;48.718;9.274;2022-08-03T02:43:06;19.90;93.40
364;DHT22;173;48.718;9.274;2022-08-03T02:45:41;19.90;93.60
364;DHT22;173;48.718;9.274;2022-08-03T02:48:19;19.90;93.60
364;DHT22;173;48.718;9.274;2022-08-03T02:50:56;19.90;93.50
364;DHT22;173;48.718;9.274;2022-08-03T02:53:29;19.90;93.20
364;DHT22;173;48.718;9.274;2022-08-03T02:56:03;19.90;93.00
364;DHT22;173;48.718;9.274;2022-08-03T02:58:38;20.00;92.80
364;DHT22;173;48.718;9.274;2022-08-03T03:01:12;19.90;92.80
364;DHT22;173;48.718;9.274;2022-08-03T03:03:46;19.90;93.00
364;DHT22;173;48.718;9.274;2022-08-03T03:06:20;19.90;92.80
364;DHT22;173;48.718;9.274;2022-08-03T03:08:54;20.00;92.80
364;DHT22;173;48.718;9.274;2022-08-03T03:11:28;20.00;92.80
364;DHT22;173;48.718;9.274;2022-08-03T03:14:01;20.00;92.50
364;DHT22;173;48.718;9.274;2022-08-03T03:16:34;20.00;92.70
364;DHT22;173;48.718;9.274;2022-08-03T03:19:08;20.00;92.70
364;DHT22;173;48.718;9.274;2022-08-03T03:21:43;20.00;92.70
364;DHT22;173;48.718;9.274;2022-08-03T03:24:17;20.00;92.70
364;DHT22;173;48.718;9.274;2022-08-03T03:26:49;19.90;92.80
364;DHT22;173;48.718;9.274;2022-08-03T03:29:22;19.90;93.00
364;DHT22;173;48.718;9.274;2022-08-03T03:31:54;19.80;93.30
364;DHT22;173;48.718;9.274;2022-08-03T03:34:28;19.70;93.40
364;DHT22;173;48.718;9.274;2022-08-03T03:37:02;19.70;93.80
364;DHT22;173;48.718;9.274;2022-08-03T03:39:34;19.70;93.50
364;DHT22;173;48.718;9.274;2022-08-03T03:44:47;19.60;93.70
364;DHT22;173;48.718;9.274;2022-08-03T03:47:20;19.60;93.60
364;DHT22;173;48.718;9.274;2022-08-03T03:49:52;19.70;93.70
364;DHT22;173;48.718;9.274;2022-08-03T03:52:25;19.60;93.70
364;DHT22;173;48.718;9.274;2022-08-03T03:55:08;19.70;93.80
364;DHT22;173;48.718;9.274;2022-08-03T03:57:42;19.70;93.50
364;DHT22;173;48.718;9.274;2022-08-03T04:00:16;19.70;93.30
364;DHT22;173;48.718;9.274;2022-08-03T04:02:49;19.70;93.30
364;DHT22;173;48.718;9.274;2022-08-03T04:05:21;19.80;93.20
364;DHT22;173;48.718;9.274;2022-08-03T04:08:14;19.70;93.20
364;DHT22;173;48.718;9.274;2022-08-03T04:11:26;19.60;93.60
364;DHT22;173;48.718;9.274;2022-08-03T04:14:07;19.60;93.70
364;DHT22;173;48.718;9.274;2022-08-03T04:16:45;19.50;93.90
364;DHT22;173;48.718;9.274;2022-08-03T04:19:27;19.40;94.20
364;DHT22;173;48.718;9.274;2022-08-03T04:22:03;19.40;94.30
364;DHT22;173;48.718;9.274;2022-08-03T04:24:42;19.50;94.30
364;DHT22;173;48.718;9.274;2022-08-03T04:27:25;19.50;94.10
364;DHT22;173;48.718;9.274;2022-08-03T04:29:53;19.40;94.10
364;DHT22;173;48.718;9.274;2022-08-03T04:32:26;19.30;94.40
364;DHT22;173;48.718;9.274;2022-08-03T04:34:59;19.30;95.00
364;DHT22;173;48.718;9.274;2022-08-03T04:37:44;19.30;94.90
364;DHT22;173;48.718;9.274;2022-08-03T04:40:27;19.30;95.10
364;DHT22;173;48.718;9.274;2022-08-03T04:43:02;19.30;95.40
364;DHT22;173;48.718;9.274;2022-08-03T04:45:36;19.40;94.90
364;DHT22;173;48.718;9.274;2022-08-03T04:48:08;19.50;94.90
364;DHT22;173;48.718;9.274;2022-08-03T04:53:22;19.70;94.00
364;DHT22;173;48.718;9.274;2022-08-03T04:55:54;19.80;93.60
364;DHT22;173;48.718;9.274;2022-08-03T04:58:28;19.80;92.80
364;DHT22;173;48.718;9.274;2022-08-03T05:01:00;19.90;92.80
364;DHT22;173;48.718;9.274;2022-08-03T05:03:32;20.00;92.70
364;DHT22;173;48.718;9.274;2022-08-03T05:08:44;20.20;92.00
364;DHT22;173;48.718;9.274;2022-08-03T05:11:17;20.30;91.60
364;DHT22;173;48.718;9.274;2022-08-03T05:13:49;20.20;91.00
364;DHT22;173;48.718;9.274;2022-08-03T05:16:21;20.20;91.00
364;DHT22;173;48.718;9.274;2022-08-03T05:18:56;20.10;91.00
364;DHT22;173;48.718;9.274;2022-08-03T05:21:29;20.20;91.70
364;DHT22;173;48.718;9.274;2022-08-03T05:24:01;20.30;91.10
364;DHT22;173;48.718;9.274;2022-08-03T05:26:33;20.30;91.80
364;DHT22;173;48.718;9.274;2022-08-03T05:29:05;20.40;90.60
364;DHT22;173;48.718;9.274;2022-08-03T05:31:37;20.40;90.70
364;DHT22;173;48.718;9.274;2022-08-03T05:34:09;20.50;90.40
364;DHT22;173;48.718;9.274;2022-08-03T05:36:41;20.60;90.60
364;DHT22;173;48.718;9.274;2022-08-03T05:39:15;20.60;90.70
364;DHT22;173;48.718;9.274;2022-08-03T05:41:53;20.80;90.40
364;DHT22;173;48.718;9.274;2022-08-03T05:44:25;20.80;89.60
364;DHT22;173;48.718;9.274;2022-08-03T05:46:58;20.90;89.30
364;DHT22;173;48.718;9.274;2022-08-03T05:49:30;21.00;89.00
364;DHT22;173;48.718;9.274;2022-08-03T05:52:02;21.20;88.80
364;DHT22;173;48.718;9.274;2022-08-03T05:54:35;21.40;88.20
364;DHT22;173;48.718;9.274;2022-08-03T05:57:05;21.40;87.20
364;DHT22;173;48.718;9.274;2022-08-03T05:59:39;21.30;88.10
364;DHT22;173;48.718;9.274;2022-08-03T06:02:11;21.20;87.50
364;DHT22;173;48.718;9.274;2022-08-03T06:04:43;20.80;89.50
364;DHT22;173;48.718;9.274;2022-08-03T06:07:15;20.90;90.00
364;DHT22;173;48.718;9.274;2022-08-03T06:09:47;21.00;89.30
364;DHT22;173;48.718;9.274;2022-08-03T06:12:19;20.90;89.00
364;DHT22;173;48.718;9.274;2022-08-03T06:16:03;21.10;89.10
364;DHT22;173;48.718;9.274;2022-08-03T06:18:36;21.40;88.90
364;DHT22;173;48.718;9.274;2022-08-03T06:21:08;21.60;88.30
364;DHT22;173;48.718;9.274;2022-08-03T06:23:40;21.70;87.80
364;DHT22;173;48.718;9.274;2022-08-03T06:26:14;21.90;86.20
364;DHT22;173;48.718;9.274;2022-08-03T06:29:21;22.10;86.00
364;DHT22;173;48.718;9.274;2022-08-03T06:31:53;22.00;85.90
364;DHT22;173;48.718;9.274;2022-08-03T06:34:25;22.20;86.80
364;DHT22;173;48.718;9.274;2022-08-03T06:36:57;22.50;85.80
364;DHT22;173;48.718;9.274;2022-08-03T06:39:29;22.70;83.90
364;DHT22;173;48.718;9.274;2022-08-03T06:47:04;23.30;83.80
364;DHT22;173;48.718;9.274;2022-08-03T06:49:36;23.50;83.40
364;DHT22;173;48.718;9.274;2022-08-03T06:53:59;23.70;82.50
364;DHT22;173;48.718;9.274;2022-08-03T06:56:31;23.80;81.40
364;DHT22;173;48.718;9.274;2022-08-03T06:59:03;24.20;81.20
364;DHT22;173;48.718;9.274;2022-08-03T07:01:35;24.20;81.10
364;DHT22;173;48.718;9.274;2022-08-03T07:04:06;24.30;80.30
364;DHT22;173;48.718;9.274;2022-08-03T07:06:39;24.20;79.90
364;DHT22;173;48.718;9.274;2022-08-03T07:09:11;24.50;78.70
364;DHT22;173;48.718;9.274;2022-08-03T07:11:43;24.50;78.40
364;DHT22;173;48.718;9.274;2022-08-03T07:14:15;24.80;78.10
364;DHT22;173;48.718;9.274;2022-08-03T07:16:47;25.10;78.70
364;DHT22;173;48.718;9.274;2022-08-03T07:19:18;25.30;77.50
364;DHT22;173;48.718;9.274;2022-08-03T07:21:50;25.60;76.10
364;DHT22;173;48.718;9.274;2022-08-03T07:24:23;25.50;76.50
364;DHT22;173;48.718;9.274;2022-08-03T07:26:55;25.70;75.70
364;DHT22;173;48.718;9.274;2022-08-03T07:29:28;26.00;74.80
364;DHT22;173;48.718;9.274;2022-08-03T07:32:00;26.20;74.30
364;DHT22;173;48.718;9.274;2022-08-03T07:34:32;26.20;74.80
364;DHT22;173;48.718;9.274;2022-08-03T07:37:04;26.30;74.10
364;DHT22;173;48.718;9.274;2022-08-03T07:39:36;26.60;71.50
364;DHT22;173;48.718;9.274;2022-08-03T07:42:08;26.90;71.70
364;DHT22;173;48.718;9.274;2022-08-03T07:44:40;27.00;72.40
364;DHT22;173;48.718;9.274;2022-08-03T07:47:16;27.30;70.90
364;DHT22;173;48.718;9.274;2022-08-03T07:49:49;27.50;70.60
364;DHT22;173;48.718;9.274;2022-08-03T07:52:21;27.50;70.30
364;DHT22;173;48.718;9.274;2022-08-03T07:55:07;27.60;69.20
364;DHT22;173;48.718;9.274;2022-08-03T07:57:39;27.80;68.60
364;DHT22;173;48.718;9.274;2022-08-03T08:03:37;28.30;68.50
364;DHT22;173;48.718;9.274;2022-08-03T08:06:09;28.40;66.50
364;DHT22;173;48.718;9.274;2022-08-03T08:08:41;28.70;67.00
364;DHT22;173;48.718;9.274;2022-08-03T08:11:13;28.50;65.80
364;DHT22;173;48.718;9.274;2022-08-03T08:13:45;28.10;67.70
364;DHT22;173;48.718;9.274;2022-08-03T08:16:17;28.30;68.70
364;DHT22;173;48.718;9.274;2022-08-03T08:18:49;28.80;69.50
364;DHT22;173;48.718;9.274;2022-08-03T08:21:21;29.10;67.10
364;DHT22;173;48.718;9.274;2022-08-03T08:23:53;29.20;66.50
364;DHT22;173;48.718;9.274;2022-08-03T08:26:26;29.40;64.50
364;DHT22;173;48.718;9.274;2022-08-03T08:28:58;29.30;64.10
364;DHT22;173;48.718;9.274;2022-08-03T08:31:30;29.40;65.60
364;DHT22;173;48.718;9.274;2022-08-03T08:34:02;29.20;63.80
364;DHT22;173;48.718;9.274;2022-08-03T08:36:35;29.30;64.10
364;DHT22;173;48.718;9.274;2022-08-03T08:39:07;29.60;62.00
364;DHT22;173;48.718;9.274;2022-08-03T08:41:39;29.70;61.80
364;DHT22;173;48.718;9.274;2022-08-03T08:44:11;29.80;59.80
364;DHT22;173;48.718;9.274;2022-08-03T08:49:04;30.20;57.90
364;DHT22;173;48.718;9.274;2022-08-03T08:51:40;30.20;58.10
364;DHT22;173;48.718;9.274;2022-08-03T08:54:17;30.40;56.90
364;DHT22;173;48.718;9.274;2022-08-03T08:56:51;30.60;59.30
364;DHT22;173;48.718;9.274;2022-08-03T09:03:13;30.80;57.70
364;DHT22;173;48.718;9.274;2022-08-03T09:05:48;31.00;56.70
364;DHT22;173;48.718;9.274;2022-08-03T09:08:23;31.30;55.80
364;DHT22;173;48.718;9.274;2022-08-03T09:10:55;31.50;54.30
364;DHT22;173;48.718;9.274;2022-08-03T09:13:27;31.60;54.20
364;DHT22;173;48.718;9.274;2022-08-03T09:16:13;31.40;53.50
364;DHT22;173;48.718;9.274;2022-08-03T09:18:52;31.30;51.80
364;DHT22;173;48.718;9.274;2022-08-03T09:21:28;31.30;52.10
364;DHT22;173;48.718;9.274;2022-08-03T09:24:02;31.70;51.20
364;DHT22;173;48.718;9.274;2022-08-03T09:26:36;31.90;49.50
364;DHT22;173;48.718;9.274;2022-08-03T09:29:10;32.00;50.50
364;DHT22;173;48.718;9.274;2022-08-03T09:31:45;32.10;52.70
364;DHT22;173;48.718;9.274;2022-08-03T09:34:18;32.50;53.30
364;DHT22;173;48.718;9.274;2022-08-03T09:36:54;32.90;53.00
364;DHT22;173;48.718;9.274;2022-08-03T09:39:27;33.10;53.20
364;DHT22;173;48.718;9.274;2022-08-03T09:42:09;32.90;50.80
364;DHT22;173;48.718;9.274;2022-08-03T09:44:46;32.30;51.50
364;DHT22;173;48.718;9.274;2022-08-03T09:47:34;32.50;52.10
364;DHT22;173;48.718;9.274;2022-08-03T09:50:08;32.40;50.80
364;DHT22;173;48.718;9.274;2022-08-03T09:52:41;32.70;50.70
364;DHT22;173;48.718;9.274;2022-08-03T09:55:15;32.80;52.60
364;DHT22;173;48.718;9.274;2022-08-03T09:57:51;33.00;50.60
364;DHT22;173;48.718;9.274;2022-08-03T10:00:26;33.40;48.50
364;DHT22;173;48.718;9.274;2022-08-03T10:03:04;33.30;49.10
364;DHT22;173;48.718;9.274;2022-08-03T10:05:38;33.30;49.60
364;DHT22;173;48.718;9.274;2022-08-03T10:08:17;33.40;49.30
364;DHT22;173;48.718;9.274;2022-08-03T10:10:51;33.70;50.50
364;DHT22;173;48.718;9.274;2022-08-03T10:13:26;33.80;45.70
364;DHT22;173;48.718;9.274;2022-08-03T10:16:00;33.70;45.20
364;DHT22;173;48.718;9.274;2022-08-03T10:23:38;34.10;48.10
364;DHT22;173;48.718;9.274;2022-08-03T10:26:15;34.20;42.80
364;DHT22;173;48.718;9.274;2022-08-03T10:28:52;34.30;42.60
364;DHT22;173;48.718;9.274;2022-08-03T10:31:30;34.30;43.20
364;DHT22;173;48.718;9.274;2022-08-03T10:34:10;34.60;43.70
364;DHT22;173;48.718;9.274;2022-08-03T10:36:48;34.50;42.20
364;DHT22;173;48.718;9.274;2022-08-03T10:39:26;34.40;43.80
364;DHT22;173;48.718;9.274;2022-08-03T10:42:02;34.50;43.30
364;DHT22;173;48.718;9.274;2022-08-03T10:44:38;34.90;42.70
364;DHT22;173;48.718;9.274;2022-08-03T10:47:12;34.90;43.50
364;DHT22;173;48.718;9.274;2022-08-03T10:49:48;35.20;42.90
364;DHT22;173;48.718;9.274;2022-08-03T10:52:22;35.20;41.90
364;DHT22;173;48.718;9.274;2022-08-03T10:54:56;35.20;42.00
364;DHT22;173;48.718;9.274;2022-08-03T10:57:57;35.30;42.70
364;DHT22;173;48.718;9.274;2022-08-03T11:00:26;36.10;44.30
364;DHT22;173;48.718;9.274;2022-08-03T11:05:45;34.90;41.40
364;DHT22;173;48.718;9.274;2022-08-03T11:08:25;35.40;41.80
364;DHT22;173;48.718;9.274;2022-08-03T11:13:59;36.40;39.00
364;DHT22;173;48.718;9.274;2022-08-03T11:16:40;36.70;37.60
364;DHT22;173;48.718;9.274;2022-08-03T11:19:20;36.60;41.70
364;DHT22;173;48.718;9.274;2022-08-03T11:21:54;37.20;39.70
364;DHT22;173;48.718;9.274;2022-08-03T11:27:35;37.20;39.80
364;DHT22;173;48.718;9.274;2022-08-03T11:33:00;37.70;38.90
364;DHT22;173;48.718;9.274;2022-08-03T11:35:31;37.40;38.30
364;DHT22;173;48.718;9.274;2022-08-03T11:38:07;37.40;37.30
364;DHT22;173;48.718;9.274;2022-08-03T11:40:44;37.20;37.60
364;DHT22;173;48.718;9.274;2022-08-03T11:46:12;36.40;41.30
364;DHT22;173;48.718;9.274;2022-08-03T11:48:48;37.00;39.50
364;DHT22;173;48.718;9.274;2022-08-03T11:51:30;37.50;39.20
364;DHT22;173;48.718;9.274;2022-08-03T11:54:05;37.10;39.20
364;DHT22;173;48.718;9.274;2022-08-03T11:56:49;37.60;38.80
364;DHT22;173;48.718;9.274;2022-08-03T11:59:33;38.10;37.90
364;DHT22;173;48.718;9.274;2022-08-03T12:02:09;38.50;37.00
364;DHT22;173;48.718;9.274;2022-08-03T12:04:54;38.90;36.40
364;DHT22;173;48.718;9.274;2022-08-03T12:07:29;39.60;35.60
364;DHT22;173;48.718;9.274;2022-08-03T12:10:11;40.50;35.20
364;DHT22;173;48.718;9.274;2022-08-03T12:12:43;40.60;35.40
364;DHT22;173;48.718;9.274;2022-08-03T12:15:15;40.60;34.70
364;DHT22;173;48.718;9.274;2022-08-03T12:17:47;39.40;35.50
364;DHT22;173;48.718;9.274;2022-08-03T12:20:24;38.60;36.00
364;DHT22;173;48.718;9.274;2022-08-03T12:23:02;39.20;36.90
364;DHT22;173;48.718;9.274;2022-08-03T12:25:38;39.30;36.10
364;DHT22;173;48.718;9.274;2022-08-03T12:28:14;39.60;37.20
364;DHT22;173;48.718;9.274;2022-08-03T12:30:50;40.10;37.10
364;DHT22;173;48.718;9.274;2022-08-03T12:35:42;40.70;33.90
364;DHT22;173;48.718;9.274;2022-08-03T12:38:20;40.20;34.20
364;DHT22;173;48.718;9.274;2022-08-03T12:40:57;40.50;35.20
364;DHT22;173;48.718;9.274;2022-08-03T12:43:32;41.20;33.20
364;DHT22;173;48.718;9.274;2022-08-03T12:46:18;41.60;34.00
364;DHT22;173;48.718;9.274;2022-08-03T12:49:11;41.50;33.30
364;DHT22;173;48.718;9.274;2022-08-03T12:54:27;41.80;34.90
364;DHT22;173;48.718;9.274;2022-08-03T12:57:11;42.20;32.60
364;DHT22;173;48.718;9.274;2022-08-03T13:03:08;40.20;34.00
364;DHT22;173;48.718;9.274;2022-08-03T13:05:44;40.80;36.10
364;DHT22;173;48.718;9.274;2022-08-03T13:08:23;41.80;35.00
364;DHT22;173;48.718;9.274;2022-08-03T13:13:39;43.30;31.90
364;DHT22;173;48.718;9.274;2022-08-03T13:16:12;44.00;32.00
364;DHT22;173;48.718;9.274;2022-08-03T13:18:45;44.00;30.10
364;DHT22;173;48.718;9.274;2022-08-03T13:21:19;44.10;31.50
364;DHT22;173;48.718;9.274;2022-08-03T13:23:52;44.20;29.60
364;DHT22;173;48.718;9.274;2022-08-03T13:26:25;43.60;31.10
364;DHT22;173;48.718;9.274;2022-08-03T13:28:57;42.70;31.30
364;DHT22;173;48.718;9.274;2022-08-03T13:31:29;42.70;31.40
364;DHT22;173;48.718;9.274;2022-08-03T13:34:02;42.30;33.00
364;DHT22;173;48.718;9.274;2022-08-03T13:36:34;43.90;31.20
364;DHT22;173;48.718;9.274;2022-08-03T13:39:06;43.70;30.80
364;DHT22;173;48.718;9.274;2022-08-03T13:41:38;44.30;30.70
364;DHT22;173;48.718;9.274;2022-08-03T13:44:09;44.10;30.30
364;DHT22;173;48.718;9.274;2022-08-03T13:46:42;43.80;31.70
364;DHT22;173;48.718;9.274;2022-08-03T13:52:56;44.10;30.40
364;DHT22;173;48.718;9.274;2022-08-03T13:55:28;43.80;29.40
364;DHT22;173;48.718;9.274;2022-08-03T13:58:00;43.90;30.80
364;DHT22;173;48.718;9.274;2022-08-03T14:00:34;44.10;29.70
364;DHT22;173;48.718;9.274;2022-08-03T14:03:07;43.90;29.60
364;DHT22;173;48.718;9.274;2022-08-03T14:05:40;43.60;31.20
364;DHT22;173;48.718;9.274;2022-08-03T14:08:13;44.00;30.40
364;DHT22;173;48.718;9.274;2022-08-03T14:10:46;43.70;29.10
364;DHT22;173;48.718;9.274;2022-08-03T14:13:18;42.60;30.10
364;DHT22;173;48.718;9.274;2022-08-03T14:15:50;42.20;32.30
364;DHT22;173;48.718;9.274;2022-08-03T14:18:22;42.80;30.20
364;DHT22;173;48.718;9.274;2022-08-03T14:20:54;43.00;30.50
364;DHT22;173;48.718;9.274;2022-08-03T14:23:26;43.30;29.80
364;DHT22;173;48.718;9.274;2022-08-03T14:25:59;44.30;28.50
364;DHT22;173;48.718;9.274;2022-08-03T14:28:31;43.80;31.10
364;DHT22;173;48.718;9.274;2022-08-03T14:31:03;44.90;30.00
364;DHT22;173;48.718;9.274;2022-08-03T14:36:17;46.80;28.00
364;DHT22;173;48.718;9.274;2022-08-03T14:38:49;46.70;27.30
364;DHT22;173;48.718;9.274;2022-08-03T14:41:21;46.70;27.20
364;DHT22;173;48.718;9.274;2022-08-03T14:43:53;46.80;25.30
364;DHT22;173;48.718;9.274;2022-08-03T14:46:25;45.00;26.40
364;DHT22;173;48.718;9.274;2022-08-03T14:48:57;45.30;28.20
364;DHT22;173;48.718;9.274;2022-08-03T14:51:30;46.90;27.10
364;DHT22;173;48.718;9.274;2022-08-03T14:54:02;47.10;27.50
364;DHT22;173;48.718;9.274;2022-08-03T14:56:34;47.10;27.60
364;DHT22;173;48.718;9.274;2022-08-03T14:59:05;46.70;26.80
364;DHT22;173;48.718;9.274;2022-08-03T15:01:37;46.60;26.20
364;DHT22;173;48.718;9.274;2022-08-03T15:04:09;45.80;26.90
364;DHT22;173;48.718;9.274;2022-08-03T15:06:41;46.10;27.20
364;DHT22;173;48.718;9.274;2022-08-03T15:09:15;46.60;26.00
364;DHT22;173;48.718;9.274;2022-08-03T15:11:47;47.30;25.90
364;DHT22;173;48.718;9.274;2022-08-03T15:14:19;48.40;25.50
364;DHT22;173;48.718;9.274;2022-08-03T15:16:51;49.20;24.60
364;DHT22;173;48.718;9.274;2022-08-03T15:19:23;47.80;24.40
364;DHT22;173;48.718;9.274;2022-08-03T15:21:55;47.70;24.50
364;DHT22;173;48.718;9.274;2022-08-03T15:24:27;47.50;24.70
364;DHT22;173;48.718;9.274;2022-08-03T15:26:59;46.30;25.50
364;DHT22;173;48.718;9.274;2022-08-03T15:29:31;46.10;25.70
364;DHT22;173;48.718;9.274;2022-08-03T15:32:04;46.50;25.90
364;DHT22;173;48.718;9.274;2022-08-03T15:34:36;45.90;25.60
364;DHT22;173;48.718;9.274;2022-08-03T15:37:08;46.40;25.30
364;DHT22;173;48.718;9.274;2022-08-03T15:39:40;45.90;25.60
364;DHT22;173;48.718;9.274;2022-08-03T15:42:12;44.60;26.90
364;DHT22;173;48.718;9.274;2022-08-03T15:44:44;44.80;27.20
364;DHT22;173;48.718;9.274;2022-08-03T15:47:16;45.30;26.90
364;DHT22;173;48.718;9.274;2022-08-03T15:49:48;46.20;25.10
364;DHT22;173;48.718;9.274;2022-08-03T15:52:20;46.60;25.40
364;DHT22;173;48.718;9.274;2022-08-03T15:54:52;47.10;24.50
364;DHT22;173;48.718;9.274;2022-08-03T15:57:24;47.50;23.80
364;DHT22;173;48.718;9.274;2022-08-03T15:59:56;46.70;24.10
364;DHT22;173;48.718;9.274;2022-08-03T16:02:28;44.70;26.90
364;DHT22;173;48.718;9.274;2022-08-03T16:05:01;44.20;26.60
364;DHT22;173;48.718;9.274;2022-08-03T16:07:34;43.50;28.20
364;DHT22;173;48.718;9.274;2022-08-03T16:10:18;43.80;27.70
364;DHT22;173;48.718;9.274;2022-08-03T16:12:51;44.20;27.30
364;DHT22;173;48.718;9.274;2022-08-03T16:15:25;44.70;26.40
364;DHT22;173;48.718;9.274;2022-08-03T16:17:57;45.10;27.60
364;DHT22;173;48.718;9.274;2022-08-03T16:20:29;44.90;26.40
364;DHT22;173;48.718;9.274;2022-08-03T16:23:02;45.20;25.70
364;DHT22;173;48.718;9.274;2022-08-03T16:25:34;46.00;25.30
364;DHT22;173;48.718;9.274;2022-08-03T16:28:07;46.10;25.30
364;DHT22;173;48.718;9.274;2022-08-03T16:30:39;46.00;25.50
364;DHT22;173;48.718;9.274;2022-08-03T16:33:13;45.20;25.60
364;DHT22;173;48.718;9.274;2022-08-03T16:35:47;45.70;25.70
364;DHT22;173;48.718;9.274;2022-08-03T16:38:18;46.00;26.10
364;DHT22;173;48.718;9.274;2022-08-03T16:40:51;46.40;26.50
364;DHT22;173;48.718;9.274;2022-08-03T16:43:23;46.00;26.80
364;DHT22;173;48.718;9.274;2022-08-03T16:45:55;45.20;28.40
364;DHT22;173;48.718;9.274;2022-08-03T16:48:27;44.90;27.70
364;DHT22;173;48.718;9.274;2022-08-03T16:50:59;45.20;28.70
364;DHT22;173;48.718;9.274;2022-08-03T16:53:30;45.00;27.70
364;DHT22;173;48.718;9.274;2022-08-03T16:56:03;44.30;28.10
364;DHT22;173;48.718;9.274;2022-08-03T16:58:36;44.70;27.50
364;DHT22;173;48.718;9.274;2022-08-03T17:01:11;44.30;28.70
364;DHT22;173;48.718;9.274;2022-08-03T17:03:44;44.60;28.00
364;DHT22;173;48.718;9.274;2022-08-03T17:06:16;44.40;28.40
364;DHT22;173;48.718;9.274;2022-08-03T17:08:49;43.80;28.20
364;DHT22;173;48.718;9.274;2022-08-03T17:11:21;44.00;29.60
364;DHT22;173;48.718;9.274;2022-08-03T17:13:53;44.20;28.90
364;DHT22;173;48.718;9.274;2022-08-03T17:16:25;44.40;28.40
364;DHT22;173;48.718;9.274;2022-08-03T17:19:02;43.80;30.00
364;DHT22;173;48.718;9.274;2022-08-03T17:21:36;44.00;29.00
364;DHT22;173;48.718;9.274;2022-08-03T17:24:13;43.40;29.80
364;DHT22;173;48.718;9.274;2022-08-03T17:26:54;43.10;31.60
364;DHT22;173;48.718;9.274;2022-08-03T17:29:27;42.90;31.20
364;DHT22;173;48.718;9.274;2022-08-03T17:32:03;42.70;33.10
364;DHT22;173;48.718;9.274;2022-08-03T17:34:36;41.90;33.20
364;DHT22;173;48.718;9.274;2022-08-03T17:37:12;40.40;33.20
364;DHT22;173;48.718;9.274;2022-08-03T17:43:09;37.90;37.70
364;DHT22;173;48.718;9.274;2022-08-03T17:45:43;36.60;38.30
364;DHT22;173;48.718;9.274;2022-08-03T17:48:15;36.10;38.50
364;DHT22;173;48.718;9.274;2022-08-03T17:50:54;35.70;41.70
364;DHT22;173;48.718;9.274;2022-08-03T17:53:32;35.50;42.70
364;DHT22;173;48.718;9.274;2022-08-03T17:56:32;35.30;42.50
364;DHT22;173;48.718;9.274;2022-08-03T17:59:50;34.90;45.10
364;DHT22;173;48.718;9.274;2022-08-03T18:05:26;34.70;43.80
364;DHT22;173;48.718;9.274;2022-08-03T18:08:00;34.30;45.60
364;DHT22;173;48.718;9.274;2022-08-03T18:10:35;34.00;47.10
364;DHT22;173;48.718;9.274;2022-08-03T18:13:15;33.80;47.50
364;DHT22;173;48.718;9.274;2022-08-03T18:15:59;33.50;47.70
364;DHT22;173;48.718;9.274;2022-08-03T18:18:34;33.30;50.00
364;DHT22;173;48.718;9.274;2022-08-03T18:21:06;33.10;48.40
364;DHT22;173;48.718;9.274;2022-08-03T18:23:40;33.00;48.50
364;DHT22;173;48.718;9.274;2022-08-03T18:26:13;33.00;50.00
364;DHT22;173;48.718;9.274;2022-08-03T18:28:49;32.90;50.50
364;DHT22;173;48.718;9.274;2022-08-03T18:31:23;32.70;52.10
364;DHT22;173;48.718;9.274;2022-08-03T18:33:55;32.30;52.10
364;DHT22;173;48.718;9.274;2022-08-03T18:36:32;32.10;52.50
364;DHT22;173;48.718;9.274;2022-08-03T18:39:05;32.10;53.60
364;DHT22;173;48.718;9.274;2022-08-03T18:41:37;31.80;52.80
364;DHT22;173;48.718;9.274;2022-08-03T18:44:09;31.50;54.60
364;DHT22;173;48.718;9.274;2022-08-03T18:56:25;31.00;54.20
364;DHT22;173;48.718;9.274;2022-08-03T19:01:53;30.70;55.40
364;DHT22;173;48.718;9.274;2022-08-03T19:04:43;30.60;54.80
364;DHT22;173;48.718;9.274;2022-08-03T19:07:24;30.60;55.60
364;DHT22;173;48.718;9.274;2022-08-03T19:09:58;30.50;54.20
364;DHT22;173;48.718;9.274;2022-08-03T19:12:39;30.30;54.00
364;DHT22;173;48.718;9.274;2022-08-03T19:15:25;30.30;55.00
364;DHT22;173;48.718;9.274;2022-08-03T19:17:59;30.20;56.10
364;DHT22;173;48.718;9.274;2022-08-03T19:20:31;30.10;55.60
364;DHT22;173;48.718;9.274;2022-08-03T19:25:38;30.00;55.80